createdAt,value
2018-08-20T00:00:40.096Z,22.06
2018-08-20T00:01:40.130Z,22.09
2018-08-20T00:02:40.152Z,22.05
2018-08-20T00:03:40.182Z,22.11
2018-08-20T00:04:40.202Z,22.05
2018-08-20T00:05:40.236Z,22.02
2018-08-20T00:06:40.262Z,21.94
2018-08-20T00:07:40.285Z,21.90
2018-08-20T00:08:40.307Z,21.86
2018-08-20T00:09:40.332Z,21.98
2018-08-20T00:10:40.363Z,21.98
2018-08-20T00:11:40.380Z,22.06
2018-08-20T00:12:40.412Z,22.05
2018-08-20T00:13:40.437Z,22.04
2018-08-20T00:14:40.462Z,22.05
2018-08-20T00:15:40.492Z,22.01
2018-08-20T00:16:40.512Z,22.02
2018-08-20T00:17:40.544Z,21.96
2018-08-20T00:18:40.568Z,21.91
2018-08-20T00:19:40.585Z,21.89
2018-08-20T00:20:40.619Z,21.82
2018-08-20T00:21:40.646Z,21.89
2018-08-20T00:22:40.672Z,21.81
2018-08-20T00:23:40.696Z,21.81
2018-08-20T00:24:40.717Z,21.77
2018-08-20T00:25:40.742Z,21.73
2018-08-20T00:26:40.773Z,21.68
2018-08-20T00:27:40.800Z,21.70
2018-08-20T00:28:40.822Z,21.77
2018-08-20T00:29:40.845Z,21.68
2018-08-20T00:30:40.875Z,21.71
2018-08-20T00:31:40.897Z,21.66
2018-08-20T00:32:40.922Z,21.61
2018-08-20T00:33:40.955Z,21.66
2018-08-20T00:34:40.975Z,21.63
2018-08-20T00:35:41.000Z,21.59
2018-08-20T00:36:41.026Z,21.59
2018-08-20T00:37:41.049Z,21.68
2018-08-20T00:38:41.081Z,21.66
2018-08-20T00:39:41.102Z,21.56
2018-08-20T00:40:41.129Z,21.59
2018-08-20T00:41:41.155Z,21.64
2018-08-20T00:42:41.179Z,21.64
2018-08-20T00:43:41.207Z,21.56
2018-08-20T00:44:41.229Z,21.63
2018-08-20T00:45:41.257Z,21.61
2018-08-20T00:46:41.288Z,21.64
2018-08-20T00:47:41.310Z,21.61
2018-08-20T00:48:41.337Z,21.64
2018-08-20T00:49:41.357Z,21.61
2018-08-20T00:50:41.385Z,21.59
2018-08-20T00:51:41.405Z,21.63
2018-08-20T00:52:41.433Z,21.53
2018-08-20T00:53:41.461Z,21.53
2018-08-20T00:54:41.500Z,21.49
2018-08-20T00:55:41.510Z,21.45
2018-08-20T00:56:41.544Z,21.49
2018-08-20T00:57:41.563Z,21.48
2018-08-20T00:58:41.591Z,21.56
2018-08-20T00:59:41.609Z,21.51
2018-08-20T01:00:41.639Z,21.38
2018-08-20T01:01:41.665Z,21.49
2018-08-20T01:02:41.689Z,21.46
2018-08-20T01:03:41.716Z,21.43
2018-08-20T01:04:41.742Z,21.51
2018-08-20T01:05:41.767Z,21.55
2018-08-20T01:06:41.793Z,21.48
2018-08-20T01:07:41.818Z,21.67
2018-08-20T01:08:41.845Z,21.61
2018-08-20T01:09:41.876Z,21.52
2018-08-20T01:10:41.887Z,21.52
2018-08-20T01:11:41.919Z,21.48
2018-08-20T01:12:41.942Z,21.52
2018-08-20T01:13:41.971Z,21.48
2018-08-20T01:14:41.997Z,21.52
2018-08-20T01:15:42.029Z,21.46
2018-08-20T01:16:42.054Z,21.49
2018-08-20T01:17:42.071Z,21.52
2018-08-20T01:18:42.101Z,21.43
2018-08-20T01:19:42.127Z,21.43
2018-08-20T01:20:42.144Z,21.36
2018-08-20T01:21:42.171Z,21.34
2018-08-20T01:22:42.201Z,21.36
2018-08-20T01:23:42.225Z,21.46
2018-08-20T01:24:42.247Z,21.40
2018-08-20T01:25:42.269Z,21.48
2018-08-20T01:26:42.303Z,21.45
2018-08-20T01:27:42.321Z,21.38
2018-08-20T01:28:42.352Z,21.43
2018-08-20T01:29:42.383Z,21.42
2018-08-20T01:30:42.405Z,21.42
2018-08-20T01:31:42.429Z,21.40
2018-08-20T01:32:42.452Z,21.27
2018-08-20T01:33:42.475Z,21.34
2018-08-20T01:34:42.505Z,21.33
2018-08-20T01:35:42.528Z,21.30
2018-08-20T01:36:42.553Z,21.37
2018-08-20T01:37:42.580Z,21.30
2018-08-20T01:38:42.603Z,21.22
2018-08-20T01:39:42.629Z,21.22
2018-08-20T01:40:42.658Z,21.27
2018-08-20T01:41:42.679Z,21.27
2018-08-20T01:42:42.702Z,21.27
2018-08-20T01:43:42.735Z,21.27
2018-08-20T01:44:42.755Z,21.26
2018-08-20T01:45:42.833Z,21.28
2018-08-20T01:46:42.809Z,21.30
2018-08-20T01:47:42.833Z,21.33
2018-08-20T01:48:42.859Z,21.36
2018-08-20T01:49:42.879Z,21.31
2018-08-20T01:50:42.911Z,21.31
2018-08-20T01:51:42.933Z,21.27
2018-08-20T01:52:42.960Z,21.28
2018-08-20T01:53:42.983Z,21.24
2018-08-20T01:54:43.013Z,21.26
2018-08-20T01:55:43.035Z,21.18
2018-08-20T01:56:43.061Z,21.22
2018-08-20T01:57:43.087Z,21.15
2018-08-20T01:58:43.115Z,21.15
2018-08-20T01:59:43.141Z,21.12
2018-08-20T02:00:43.165Z,21.19
2018-08-20T02:01:43.200Z,21.16
2018-08-20T02:02:43.215Z,21.09
2018-08-20T02:03:43.241Z,21.08
2018-08-20T02:04:43.266Z,21.09
2018-08-20T02:05:43.287Z,21.08
2018-08-20T02:06:43.319Z,21.08
2018-08-20T02:07:43.337Z,21.05
2018-08-20T02:08:43.364Z,20.98
2018-08-20T02:09:43.396Z,20.91
2018-08-20T02:10:43.410Z,20.97
2018-08-20T02:11:43.444Z,20.96
2018-08-20T02:12:43.466Z,20.91
2018-08-20T02:13:43.495Z,20.97
2018-08-20T02:14:43.519Z,20.83
2018-08-20T02:15:43.547Z,20.90
2018-08-20T02:16:43.565Z,20.90
2018-08-20T02:17:43.592Z,20.81
2018-08-20T02:18:43.620Z,20.85
2018-08-20T02:19:43.644Z,20.82
2018-08-20T02:20:43.668Z,20.82
2018-08-20T02:21:43.699Z,20.90
2018-08-20T02:22:43.717Z,20.78
2018-08-20T02:23:43.743Z,20.85
2018-08-20T02:24:43.764Z,20.82
2018-08-20T02:25:43.801Z,20.82
2018-08-20T02:26:43.818Z,20.81
2018-08-20T02:27:43.845Z,20.82
2018-08-20T02:28:43.873Z,20.79
2018-08-20T02:29:43.891Z,20.81
2018-08-20T02:30:43.921Z,20.79
2018-08-20T02:31:43.946Z,20.79
2018-08-20T02:32:43.967Z,20.76
2018-08-20T02:33:43.996Z,20.72
2018-08-20T02:34:44.021Z,20.72
2018-08-20T02:35:44.047Z,20.76
2018-08-20T02:36:44.077Z,20.76
2018-08-20T02:37:44.097Z,20.60
2018-08-20T02:38:44.131Z,20.68
2018-08-20T02:39:44.143Z,20.60
2018-08-20T02:40:44.173Z,20.61
2018-08-20T02:41:44.190Z,20.72
2018-08-20T02:42:44.224Z,20.64
2018-08-20T02:43:44.243Z,20.75
2018-08-20T02:44:44.278Z,20.72
2018-08-20T02:45:44.296Z,20.69
2018-08-20T02:46:44.320Z,20.72
2018-08-20T02:47:44.339Z,20.66
2018-08-20T02:48:44.372Z,20.71
2018-08-20T02:49:44.399Z,20.60
2018-08-20T02:50:44.428Z,20.73
2018-08-20T02:51:44.447Z,20.66
2018-08-20T02:52:44.475Z,20.57
2018-08-20T02:53:44.496Z,20.58
2018-08-20T02:54:44.522Z,20.73
2018-08-20T02:55:44.550Z,20.64
2018-08-20T02:56:44.573Z,20.71
2018-08-20T02:57:44.602Z,20.61
2018-08-20T02:58:44.625Z,20.71
2018-08-20T02:59:44.645Z,20.72
2018-08-20T03:00:44.678Z,20.69
2018-08-20T03:01:44.696Z,20.73
2018-08-20T03:02:44.726Z,20.78
2018-08-20T03:03:44.791Z,20.72
2018-08-20T03:04:44.768Z,20.57
2018-08-20T03:05:44.796Z,20.66
2018-08-20T03:06:44.828Z,20.63
2018-08-20T03:07:44.847Z,20.60
2018-08-20T03:08:44.880Z,20.58
2018-08-20T03:09:44.900Z,20.56
2018-08-20T03:10:44.930Z,20.58
2018-08-20T03:11:44.947Z,20.56
2018-08-20T03:12:44.976Z,20.58
2018-08-20T03:13:45.001Z,20.56
2018-08-20T03:14:45.022Z,20.56
2018-08-20T03:15:45.074Z,20.58
2018-08-20T03:16:45.077Z,20.58
2018-08-20T03:17:45.104Z,20.63
2018-08-20T03:18:45.126Z,20.57
2018-08-20T03:19:45.158Z,20.56
2018-08-20T03:20:45.175Z,20.54
2018-08-20T03:21:45.195Z,20.48
2018-08-20T03:22:45.222Z,20.48
2018-08-20T03:23:45.250Z,20.44
2018-08-20T03:24:45.271Z,20.51
2018-08-20T03:25:45.305Z,20.48
2018-08-20T03:26:45.327Z,20.51
2018-08-20T03:27:45.342Z,20.46
2018-08-20T03:28:45.371Z,20.48
2018-08-20T03:29:45.402Z,20.50
2018-08-20T03:30:45.429Z,20.48
2018-08-20T03:31:45.451Z,20.46
2018-08-20T03:32:45.484Z,20.50
2018-08-20T03:33:45.511Z,20.48
2018-08-20T03:34:45.523Z,20.51
2018-08-20T03:35:45.547Z,20.51
2018-08-20T03:36:45.575Z,20.50
2018-08-20T03:37:45.600Z,20.48
2018-08-20T03:38:45.623Z,20.40
2018-08-20T03:39:45.645Z,20.42
2018-08-20T03:40:45.675Z,20.48
2018-08-20T03:41:45.701Z,20.51
2018-08-20T03:42:45.725Z,20.57
2018-08-20T03:43:45.747Z,20.60
2018-08-20T03:44:45.774Z,20.54
2018-08-20T03:45:45.801Z,20.48
2018-08-20T03:46:45.825Z,20.60
2018-08-20T03:47:45.848Z,20.51
2018-08-20T03:48:45.872Z,20.57
2018-08-20T03:49:45.894Z,20.58
2018-08-20T03:50:45.925Z,20.53
2018-08-20T03:51:45.946Z,20.64
2018-08-20T03:52:45.979Z,20.54
2018-08-20T03:53:46.003Z,20.56
2018-08-20T03:54:46.023Z,20.50
2018-08-20T03:55:46.046Z,20.48
2018-08-20T03:56:46.078Z,20.54
2018-08-20T03:57:46.100Z,20.48
2018-08-20T03:58:46.124Z,20.50
2018-08-20T03:59:46.156Z,20.53
2018-08-20T04:00:46.175Z,20.44
2018-08-20T04:01:46.199Z,20.44
2018-08-20T04:02:46.234Z,20.50
2018-08-20T04:03:46.246Z,20.50
2018-08-20T04:04:46.276Z,20.58
2018-08-20T04:05:46.295Z,20.53
2018-08-20T04:06:46.324Z,20.56
2018-08-20T04:07:46.357Z,20.57
2018-08-20T04:08:46.375Z,20.53
2018-08-20T04:09:46.396Z,20.58
2018-08-20T04:10:46.422Z,20.60
2018-08-20T04:11:46.448Z,20.50
2018-08-20T04:12:46.478Z,20.44
2018-08-20T04:13:46.494Z,20.48
2018-08-20T04:14:46.528Z,20.48
2018-08-20T04:15:46.543Z,20.44
2018-08-20T04:16:46.574Z,20.54
2018-08-20T04:17:46.594Z,20.57
2018-08-20T04:18:46.624Z,20.50
2018-08-20T04:19:46.650Z,20.50
2018-08-20T04:20:46.678Z,20.50
2018-08-20T04:21:46.694Z,20.48
2018-08-20T04:22:46.731Z,20.50
2018-08-20T04:23:46.744Z,20.48
2018-08-20T04:24:46.775Z,20.42
2018-08-20T04:25:46.794Z,20.51
2018-08-20T04:26:46.820Z,20.48
2018-08-20T04:27:46.841Z,20.54
2018-08-20T04:28:46.879Z,20.58
2018-08-20T04:29:46.899Z,20.58
2018-08-20T04:30:46.975Z,20.54
2018-08-20T04:31:46.948Z,20.57
2018-08-20T04:32:46.972Z,20.54
2018-08-20T04:33:46.991Z,20.63
2018-08-20T04:34:47.024Z,20.60
2018-08-20T04:35:47.050Z,20.69
2018-08-20T04:36:47.075Z,20.60
2018-08-20T04:37:47.099Z,20.72
2018-08-20T04:38:47.128Z,20.71
2018-08-20T04:39:47.146Z,20.75
2018-08-20T04:40:47.175Z,20.73
2018-08-20T04:41:47.195Z,20.69
2018-08-20T04:42:47.225Z,20.66
2018-08-20T04:43:47.246Z,20.71
2018-08-20T04:44:47.270Z,20.73
2018-08-20T04:45:47.298Z,20.58
2018-08-20T04:46:47.326Z,20.57
2018-08-20T04:47:47.347Z,20.61
2018-08-20T04:48:47.368Z,20.56
2018-08-20T04:49:47.436Z,20.60
2018-08-20T04:50:47.489Z,20.64
2018-08-20T04:51:47.446Z,20.61
2018-08-20T04:52:47.477Z,20.60
2018-08-20T04:53:47.499Z,20.58
2018-08-20T04:54:47.533Z,20.66
2018-08-20T04:55:47.549Z,20.61
2018-08-20T04:56:47.572Z,20.60
2018-08-20T04:57:47.598Z,20.72
2018-08-20T04:58:47.621Z,20.57
2018-08-20T04:59:47.646Z,20.58
2018-08-20T05:00:47.677Z,20.58
2018-08-20T05:01:47.701Z,20.60
2018-08-20T05:02:47.727Z,20.61
2018-08-20T05:03:47.749Z,20.60
2018-08-20T05:04:47.774Z,20.79
2018-08-20T05:05:47.794Z,20.72
2018-08-20T05:06:47.822Z,20.83
2018-08-20T05:07:47.850Z,20.82
2018-08-20T05:08:47.869Z,20.83
2018-08-20T05:09:47.904Z,20.82
2018-08-20T05:10:47.920Z,20.85
2018-08-20T05:11:47.948Z,20.83
2018-08-20T05:12:47.974Z,20.81
2018-08-20T05:13:47.996Z,20.81
2018-08-20T05:14:48.024Z,20.82
2018-08-20T05:15:48.052Z,20.82
2018-08-20T05:16:48.072Z,20.75
2018-08-20T05:17:48.102Z,20.75
2018-08-20T05:18:48.169Z,20.66
2018-08-20T05:19:48.150Z,20.69
2018-08-20T05:20:48.176Z,20.76
2018-08-20T05:21:48.202Z,20.78
2018-08-20T05:22:48.224Z,20.76
2018-08-20T05:23:48.242Z,20.78
2018-08-20T05:24:48.272Z,20.78
2018-08-20T05:25:48.303Z,20.81
2018-08-20T05:26:48.351Z,20.73
2018-08-20T05:27:48.350Z,20.83
2018-08-20T05:28:48.373Z,20.76
2018-08-20T05:29:48.402Z,20.72
2018-08-20T05:30:48.434Z,20.66
2018-08-20T05:31:48.450Z,20.68
2018-08-20T05:32:48.473Z,20.72
2018-08-20T05:33:48.504Z,20.71
2018-08-20T05:34:48.520Z,20.71
2018-08-20T05:35:48.556Z,20.82
2018-08-20T05:36:48.572Z,20.83
2018-08-20T05:37:48.605Z,20.81
2018-08-20T05:38:48.622Z,20.91
2018-08-20T05:39:48.645Z,20.97
2018-08-20T05:40:48.679Z,21.01
2018-08-20T05:41:48.706Z,21.01
2018-08-20T05:42:48.725Z,20.96
2018-08-20T05:43:48.749Z,20.97
2018-08-20T05:44:48.918Z,21.08
2018-08-20T05:45:48.802Z,21.03
2018-08-20T05:46:48.821Z,21.03
2018-08-20T05:47:48.850Z,20.94
2018-08-20T05:48:48.877Z,20.90
2018-08-20T05:49:48.905Z,20.94
2018-08-20T05:50:48.926Z,20.96
2018-08-20T05:51:48.951Z,21.08
2018-08-20T05:52:48.978Z,21.11
2018-08-20T05:53:48.998Z,21.08
2018-08-20T05:54:49.025Z,21.12
2018-08-20T05:55:49.052Z,21.08
2018-08-20T05:56:49.076Z,21.03
2018-08-20T05:57:49.111Z,21.06
2018-08-20T05:58:49.131Z,21.09
2018-08-20T05:59:49.156Z,21.08
2018-08-20T06:00:49.178Z,21.08
2018-08-20T06:01:49.202Z,21.13
2018-08-20T06:02:49.238Z,21.18
2018-08-20T06:03:49.258Z,21.15
2018-08-20T06:04:49.284Z,21.24
2018-08-20T06:05:49.300Z,21.16
2018-08-20T06:06:49.332Z,21.22
2018-08-20T06:07:49.422Z,21.18
2018-08-20T06:08:49.390Z,21.16
2018-08-20T06:09:49.404Z,21.06
2018-08-20T06:10:49.428Z,21.16
2018-08-20T06:11:49.457Z,21.05
2018-08-20T06:12:49.494Z,21.16
2018-08-20T06:13:49.513Z,21.11
2018-08-20T06:14:49.538Z,21.08
2018-08-20T06:15:49.560Z,21.11
2018-08-20T06:16:49.588Z,21.09
2018-08-20T06:17:49.610Z,21.15
2018-08-20T06:18:49.676Z,21.09
2018-08-20T06:19:49.658Z,21.05
2018-08-20T06:20:49.685Z,21.12
2018-08-20T06:21:49.710Z,21.11
2018-08-20T06:22:49.743Z,21.03
2018-08-20T06:23:49.765Z,21.09
2018-08-20T06:24:49.790Z,21.03
2018-08-20T06:25:49.816Z,21.09
2018-08-20T06:26:49.840Z,21.15
2018-08-20T06:27:49.868Z,20.93
2018-08-20T06:28:49.887Z,20.83
2018-08-20T06:29:49.914Z,20.83
2018-08-20T06:30:49.942Z,20.69
2018-08-20T06:31:49.965Z,20.58
2018-08-20T06:32:49.988Z,20.46
2018-08-20T06:33:50.020Z,20.42
2018-08-20T06:34:50.040Z,20.40
2018-08-20T06:35:50.082Z,20.27
2018-08-20T06:36:50.092Z,20.34
2018-08-20T06:37:50.121Z,20.15
2018-08-20T06:38:50.142Z,20.15
2018-08-20T06:39:50.165Z,20.10
2018-08-20T06:40:50.194Z,20.12
2018-08-20T06:41:50.212Z,20.05
2018-08-20T06:42:50.242Z,19.97
2018-08-20T06:43:50.268Z,19.95
2018-08-20T06:44:50.292Z,19.94
2018-08-20T06:45:50.316Z,20.13
2018-08-20T06:46:50.338Z,20.08
2018-08-20T06:47:50.366Z,20.13
2018-08-20T06:48:50.453Z,20.19
2018-08-20T06:49:50.413Z,20.19
2018-08-20T06:50:50.439Z,20.12
2018-08-20T06:51:50.472Z,19.97
2018-08-20T06:52:50.490Z,20.01
2018-08-20T06:53:50.510Z,19.97
2018-08-20T06:54:50.565Z,19.95
2018-08-20T06:55:50.559Z,19.97
2018-08-20T06:56:50.582Z,20.02
2018-08-20T06:57:50.609Z,20.00
2018-08-20T06:58:50.630Z,20.13
2018-08-20T06:59:50.658Z,20.12
2018-08-20T07:00:50.719Z,20.13
2018-08-20T07:01:50.708Z,20.10
2018-08-20T07:02:50.728Z,20.07
2018-08-20T07:03:50.753Z,20.05
2018-08-20T07:04:50.780Z,20.10
2018-08-20T07:05:50.802Z,20.15
2018-08-20T07:06:50.826Z,20.22
2018-08-20T07:07:50.851Z,20.22
2018-08-20T07:08:50.875Z,20.20
2018-08-20T07:09:50.900Z,20.26
2018-08-20T07:10:50.925Z,20.20
2018-08-20T07:11:51.005Z,20.25
2018-08-20T07:12:50.972Z,20.19
2018-08-20T07:13:51.002Z,20.25
2018-08-20T07:14:51.023Z,20.34
2018-08-20T07:15:51.052Z,20.33
2018-08-20T07:16:51.073Z,20.35
2018-08-20T07:17:51.101Z,20.31
2018-08-20T07:18:51.130Z,20.17
2018-08-20T07:19:51.142Z,20.20
2018-08-20T07:20:51.166Z,20.35
2018-08-20T07:21:51.193Z,20.40
2018-08-20T07:22:51.286Z,20.31
2018-08-20T07:23:51.300Z,20.42
2018-08-20T07:24:51.269Z,20.37
2018-08-20T07:25:51.288Z,20.42
2018-08-20T07:26:51.319Z,20.51
2018-08-20T07:27:51.335Z,20.42
2018-08-20T07:28:51.366Z,20.46
2018-08-20T07:29:51.393Z,20.46
2018-08-20T07:30:51.418Z,20.57
2018-08-20T07:31:51.441Z,20.63
2018-08-20T07:32:51.464Z,20.66
2018-08-20T07:33:51.498Z,20.76
2018-08-20T07:34:51.519Z,20.85
2018-08-20T07:35:51.541Z,20.81
2018-08-20T07:36:51.561Z,20.85
2018-08-20T07:37:51.594Z,20.97
2018-08-20T07:38:51.617Z,21.08
2018-08-20T07:39:51.639Z,21.09
2018-08-20T07:40:51.665Z,21.13
2018-08-20T07:41:51.686Z,21.21
2018-08-20T07:42:51.715Z,21.16
2018-08-20T07:43:51.737Z,21.18
2018-08-20T07:44:51.765Z,20.98
2018-08-20T07:45:51.788Z,21.24
2018-08-20T07:46:51.819Z,21.28
2018-08-20T07:47:51.841Z,21.11
2018-08-20T07:48:51.869Z,21.24
2018-08-20T07:49:51.898Z,21.33
2018-08-20T07:50:51.965Z,21.34
2018-08-20T07:51:51.942Z,21.51
2018-08-20T07:52:51.966Z,21.56
2018-08-20T07:53:51.993Z,21.63
2018-08-20T07:54:52.021Z,21.56
2018-08-20T07:55:52.042Z,21.38
2018-08-20T07:56:52.078Z,21.43
2018-08-20T07:57:52.099Z,21.46
2018-08-20T07:58:52.124Z,21.51
2018-08-20T07:59:52.146Z,21.52
2018-08-20T08:00:52.177Z,21.66
2018-08-20T08:01:52.199Z,21.70
2018-08-20T08:02:52.220Z,21.77
2018-08-20T08:03:52.239Z,21.71
2018-08-20T08:04:52.277Z,21.52
2018-08-20T08:05:52.302Z,21.63
2018-08-20T08:06:52.327Z,21.59
2018-08-20T08:07:52.384Z,21.43
2018-08-20T08:08:52.465Z,21.49
2018-08-20T08:09:52.405Z,21.52
2018-08-20T08:10:52.432Z,21.46
2018-08-20T08:11:52.455Z,21.55
2018-08-20T08:12:52.483Z,21.70
2018-08-20T08:13:52.509Z,21.63
2018-08-20T08:14:52.533Z,21.58
2018-08-20T08:15:52.563Z,21.56
2018-08-20T08:16:52.585Z,21.63
2018-08-20T08:17:52.608Z,21.77
2018-08-20T08:18:52.635Z,21.83
2018-08-20T08:19:52.848Z,21.83
2018-08-20T08:20:52.693Z,21.67
2018-08-20T08:21:52.716Z,21.66
2018-08-20T08:22:52.740Z,21.67
2018-08-20T08:23:52.765Z,21.52
2018-08-20T08:24:52.797Z,21.64
2018-08-20T08:25:52.821Z,21.59
2018-08-20T08:26:52.850Z,21.53
2018-08-20T08:27:52.871Z,21.48
2018-08-20T08:28:52.889Z,21.40
2018-08-20T08:29:52.921Z,21.28
2018-08-20T08:30:52.944Z,21.37
2018-08-20T08:31:52.977Z,21.37
2018-08-20T08:32:52.998Z,21.31
2018-08-20T08:33:53.023Z,21.31
2018-08-20T08:34:53.059Z,21.27
2018-08-20T08:35:53.075Z,21.28
2018-08-20T08:36:53.119Z,21.22
2018-08-20T08:37:53.138Z,21.30
2018-08-20T08:38:53.146Z,21.18
2018-08-20T08:39:53.177Z,21.21
2018-08-20T08:40:53.207Z,21.26
2018-08-20T08:41:53.222Z,21.38
2018-08-20T08:42:53.253Z,21.30
2018-08-20T08:43:53.281Z,21.49
2018-08-20T08:44:53.298Z,21.36
2018-08-20T08:45:53.320Z,21.45
2018-08-20T08:46:53.353Z,21.36
2018-08-20T08:47:53.379Z,21.46
2018-08-20T08:48:53.405Z,21.48
2018-08-20T08:49:53.437Z,21.48
2018-08-20T08:50:53.462Z,21.56
2018-08-20T08:51:53.474Z,21.56
2018-08-20T08:52:53.512Z,21.56
2018-08-20T08:53:53.535Z,21.40
2018-08-20T08:54:53.565Z,21.45
2018-08-20T08:55:53.582Z,21.59
2018-08-20T08:56:53.613Z,21.75
2018-08-20T08:57:53.635Z,21.79
2018-08-20T08:58:53.663Z,21.90
2018-08-20T08:59:53.691Z,22.19
2018-08-20T09:00:53.719Z,22.36
2018-08-20T09:01:53.739Z,22.27
2018-08-20T09:02:53.770Z,22.46
2018-08-20T09:03:53.797Z,22.45
2018-08-20T09:04:53.823Z,22.49
2018-08-20T09:05:53.845Z,22.48
2018-08-20T09:06:53.877Z,22.30
2018-08-20T09:07:53.900Z,22.26
2018-08-20T09:08:53.928Z,22.11
2018-08-20T09:09:53.955Z,22.06
2018-08-20T09:10:53.979Z,21.85
2018-08-20T09:11:54.003Z,21.83
2018-08-20T09:12:54.031Z,21.71
2018-08-20T09:13:54.055Z,21.63
2018-08-20T09:14:54.087Z,21.66
2018-08-20T09:15:54.111Z,21.63
2018-08-20T09:16:54.137Z,21.58
2018-08-20T09:17:54.165Z,21.49
2018-08-20T09:18:54.185Z,21.51
2018-08-20T09:19:54.206Z,21.51
2018-08-20T09:20:54.241Z,21.49
2018-08-20T09:21:54.263Z,21.55
2018-08-20T09:22:54.289Z,21.59
2018-08-20T09:23:54.320Z,21.61
2018-08-20T09:24:54.346Z,21.64
2018-08-20T09:25:54.365Z,21.79
2018-08-20T09:26:54.399Z,21.89
2018-08-20T09:27:54.422Z,21.98
2018-08-20T09:28:54.451Z,22.05
2018-08-20T09:29:54.481Z,22.15
2018-08-20T09:30:54.506Z,22.14
2018-08-20T09:31:54.523Z,22.17
2018-08-20T09:32:54.555Z,22.33
2018-08-20T09:33:54.578Z,22.31
2018-08-20T09:34:54.599Z,22.46
2018-08-20T09:35:54.618Z,22.52
2018-08-20T09:36:54.655Z,22.63
2018-08-20T09:37:54.679Z,22.64
2018-08-20T09:38:54.709Z,22.76
2018-08-20T09:39:54.733Z,22.75
2018-08-20T09:40:54.765Z,22.82
2018-08-20T09:41:54.785Z,22.97
2018-08-20T09:42:54.815Z,23.07
2018-08-20T09:43:54.892Z,23.09
2018-08-20T09:44:54.873Z,23.15
2018-08-20T09:45:54.892Z,23.23
2018-08-20T09:46:54.919Z,23.41
2018-08-20T09:47:54.939Z,23.25
2018-08-20T09:48:54.972Z,23.31
2018-08-20T09:49:55.003Z,23.32
2018-08-20T09:50:55.031Z,23.22
2018-08-20T09:51:55.055Z,23.31
2018-08-20T09:52:55.082Z,23.29
2018-08-20T09:53:55.109Z,23.21
2018-08-20T09:54:55.137Z,23.23
2018-08-20T09:55:55.153Z,23.16
2018-08-20T09:56:55.185Z,23.11
2018-08-20T09:57:55.211Z,23.23
2018-08-20T09:58:55.254Z,23.14
2018-08-20T09:59:55.267Z,23.12
2018-08-20T10:00:55.301Z,23.11
2018-08-20T10:01:55.324Z,23.06
2018-08-20T10:02:55.345Z,23.15
2018-08-20T10:03:55.377Z,22.94
2018-08-20T10:04:55.400Z,22.56
2018-08-20T10:05:55.432Z,22.31
2018-08-20T10:06:55.455Z,22.33
2018-08-20T10:07:55.481Z,22.33
2018-08-20T10:08:55.518Z,22.49
2018-08-20T10:09:55.526Z,22.59
2018-08-20T10:10:55.566Z,22.64
2018-08-20T10:11:55.589Z,22.70
2018-08-20T10:12:55.615Z,22.79
2018-08-20T10:13:55.642Z,23.00
2018-08-20T10:14:55.675Z,22.99
2018-08-20T10:15:55.699Z,22.97
2018-08-20T10:16:55.723Z,22.94
2018-08-20T10:17:55.753Z,22.96
2018-08-20T10:18:55.783Z,22.85
2018-08-20T10:19:55.801Z,22.96
2018-08-20T10:20:55.836Z,22.97
2018-08-20T10:21:55.861Z,23.09
2018-08-20T10:22:55.882Z,23.22
2018-08-20T10:23:55.912Z,23.56
2018-08-20T10:24:55.946Z,23.74
2018-08-20T10:25:55.969Z,23.63
2018-08-20T10:26:55.992Z,23.57
2018-08-20T10:27:56.028Z,23.89
2018-08-20T10:28:56.045Z,23.99
2018-08-20T10:29:56.073Z,23.97
2018-08-20T10:30:56.104Z,24.05
2018-08-20T10:31:56.184Z,23.99
2018-08-20T10:32:56.162Z,24.06
2018-08-20T10:33:56.185Z,24.00
2018-08-20T10:34:56.214Z,24.08
2018-08-20T10:35:56.247Z,24.14
2018-08-20T10:36:56.267Z,24.24
2018-08-20T10:37:56.414Z,24.24
2018-08-20T10:38:56.324Z,24.05
2018-08-20T10:39:56.350Z,24.02
2018-08-20T10:40:56.375Z,23.81
2018-08-20T10:41:56.404Z,23.62
2018-08-20T10:42:56.432Z,23.56
2018-08-20T10:43:56.462Z,23.22
2018-08-20T10:44:56.493Z,23.12
2018-08-20T10:45:56.510Z,22.94
2018-08-20T10:46:56.543Z,22.84
2018-08-20T10:47:56.568Z,22.75
2018-08-20T10:48:56.597Z,22.74
2018-08-20T10:49:56.671Z,22.82
2018-08-20T10:50:56.651Z,22.75
2018-08-20T10:51:56.685Z,22.85
2018-08-20T10:52:56.710Z,22.85
2018-08-20T10:53:56.735Z,22.84
2018-08-20T10:54:56.757Z,23.01
2018-08-20T10:55:56.791Z,23.14
2018-08-20T10:56:56.811Z,23.37
2018-08-20T10:57:56.839Z,23.74
2018-08-20T10:58:56.863Z,24.09
2018-08-20T10:59:56.891Z,24.30
2018-08-20T11:00:56.917Z,24.68
2018-08-20T11:01:56.978Z,24.60
2018-08-20T11:02:56.979Z,24.27
2018-08-20T11:03:57.016Z,24.06
2018-08-20T11:04:57.025Z,23.86
2018-08-20T11:05:57.059Z,23.56
2018-08-20T11:06:57.081Z,23.59
2018-08-20T11:07:57.107Z,23.54
2018-08-20T11:08:57.139Z,23.53
2018-08-20T11:09:57.194Z,23.53
2018-08-20T11:10:57.266Z,23.42
2018-08-20T11:11:57.221Z,23.41
2018-08-20T11:12:57.243Z,23.41
2018-08-20T11:13:57.271Z,23.44
2018-08-20T11:14:57.297Z,23.50
2018-08-20T11:15:57.323Z,23.49
2018-08-20T11:16:57.355Z,23.60
2018-08-20T11:17:57.381Z,23.63
2018-08-20T11:18:57.404Z,23.25
2018-08-20T11:19:57.437Z,23.15
2018-08-20T11:20:57.472Z,23.14
2018-08-20T11:21:57.489Z,23.26
2018-08-20T11:22:57.517Z,23.60
2018-08-20T11:23:57.541Z,23.74
2018-08-20T11:24:57.573Z,24.89
2018-08-20T11:25:57.604Z,26.86
2018-08-20T11:26:57.690Z,27.03
2018-08-20T11:27:57.655Z,27.43
2018-08-20T11:28:57.690Z,27.83
2018-08-20T11:29:57.711Z,28.25
2018-08-20T11:30:57.743Z,28.14
2018-08-20T11:31:59.194Z,27.49
2018-08-20T11:32:57.800Z,26.73
2018-08-20T11:33:57.827Z,26.01
2018-08-20T11:34:57.861Z,25.48
2018-08-20T11:35:57.883Z,24.89
2018-08-20T11:36:57.911Z,24.79
2018-08-20T11:37:57.940Z,24.86
2018-08-20T11:38:57.976Z,24.99
2018-08-20T11:39:58.021Z,25.42
2018-08-20T11:40:58.031Z,25.66
2018-08-20T11:41:58.065Z,25.60
2018-08-20T11:42:58.093Z,25.35
2018-08-20T11:43:58.125Z,25.09
2018-08-20T11:44:58.151Z,24.93
2018-08-20T11:45:58.197Z,24.80
2018-08-20T11:46:58.207Z,24.71
2018-08-20T11:47:58.237Z,24.53
2018-08-20T11:48:58.282Z,24.36
2018-08-20T11:49:58.294Z,24.11
2018-08-20T11:50:58.321Z,23.94
2018-08-20T11:51:58.349Z,23.89
2018-08-20T11:52:58.409Z,23.71
2018-08-20T11:53:58.403Z,23.53
2018-08-20T11:54:58.437Z,23.19
2018-08-20T11:55:58.466Z,22.99
2018-08-20T11:56:58.489Z,22.57
2018-08-20T11:57:58.520Z,22.39
2018-08-20T11:58:58.604Z,22.33
2018-08-20T11:59:58.571Z,22.42
2018-08-20T12:00:58.598Z,22.39
2018-08-20T12:01:58.700Z,22.59
2018-08-20T12:02:58.654Z,22.72
2018-08-20T12:03:58.689Z,22.93
2018-08-20T12:04:58.707Z,23.06
2018-08-20T12:05:58.732Z,23.60
2018-08-20T12:06:58.824Z,24.09
2018-08-20T12:07:58.791Z,25.82
2018-08-20T12:08:58.815Z,26.46
2018-08-20T12:09:58.843Z,27.48
2018-08-20T12:10:58.872Z,28.65
2018-08-20T12:11:58.895Z,28.35
2018-08-20T12:12:58.927Z,27.80
2018-08-20T12:13:58.948Z,27.06
2018-08-20T12:14:58.979Z,26.49
2018-08-20T12:15:59.007Z,25.93
2018-08-20T12:16:59.044Z,25.85
2018-08-20T12:17:59.073Z,26.56
2018-08-20T12:18:59.105Z,26.42
2018-08-20T12:19:59.128Z,26.54
2018-08-20T12:20:59.151Z,26.42
2018-08-20T12:21:59.178Z,26.06
2018-08-20T12:22:59.214Z,25.61
2018-08-20T12:23:59.242Z,25.63
2018-08-20T12:24:59.268Z,25.60
2018-08-20T12:25:59.294Z,25.63
2018-08-20T12:26:59.323Z,25.53
2018-08-20T12:27:59.356Z,25.08
2018-08-20T12:28:59.375Z,24.79
2018-08-20T12:29:59.412Z,24.68
2018-08-20T12:30:59.535Z,24.87
2018-08-20T12:31:59.474Z,25.09
2018-08-20T12:32:59.498Z,25.14
2018-08-20T12:33:59.521Z,25.16
2018-08-20T12:34:59.552Z,25.22
2018-08-20T12:35:59.582Z,25.26
2018-08-20T12:36:59.612Z,25.12
2018-08-20T12:37:59.637Z,24.94
2018-08-20T12:38:59.662Z,24.86
2018-08-20T12:39:59.827Z,24.49
2018-08-20T12:40:59.720Z,24.52
2018-08-20T12:41:59.749Z,24.27
2018-08-20T12:42:59.778Z,24.36
2018-08-20T12:43:59.801Z,24.21
2018-08-20T12:44:59.827Z,24.34
2018-08-20T12:45:59.867Z,24.67
2018-08-20T12:46:59.897Z,24.97
2018-08-20T12:47:59.918Z,25.97
2018-08-20T12:48:59.952Z,25.72
2018-08-20T12:49:59.974Z,25.82
2018-08-20T12:50:59.998Z,25.35
2018-08-20T12:52:00.024Z,24.90
2018-08-20T12:53:00.086Z,24.55